sensor_id;sensor_type;location;lat;lon;timestamp;temperature;humidity
48998;DHT22;34807;51.456;7.244;2023-12-20T00:02:12;7.20;99.90
48998;DHT22;34807;51.456;7.244;2023-12-20T00:04:38;7.20;99.90
48998;DHT22;34807;51.456;7.244;2023-12-20T00:07:03;7.20;99.90
48998;DHT22;34807;51.456;7.244;2023-12-20T00:09:29;7.20;99.90
48998;DHT22;34807;51.456;7.244;2023-12-20T00:11:54;7.20;99.90
48998;DHT22;34807;51.456;7.244;2023-12-20T00:14:20;7.20;99.90
48998;DHT22;34807;51.456;7.244;2023-12-20T00:16:45;7.20;99.90
48998;DHT22;34807;51.456;7.244;2023-12-20T00:19:11;7.20;99.90
48998;DHT22;34807;51.456;7.244;2023-12-20T00:21:36;7.20;99.90
48998;DHT22;34807;51.456;7.244;2023-12-20T00:24:02;7.20;99.90
48998;DHT22;34807;51.456;7.244;2023-12-20T00:26:27;7.20;99.90
48998;DHT22;34807;51.456;7.244;2023-12-20T00:28:53;7.20;99.90
48998;DHT22;34807;51.456;7.244;2023-12-20T00:31:19;7.20;99.90
48998;DHT22;34807;51.456;7.244;2023-12-20T00:33:44;7.20;99.90
48998;DHT22;34807;51.456;7.244;2023-12-20T00:36:11;7.20;99.90
48998;DHT22;34807;51.456;7.244;2023-12-20T00:38:36;7.20;99.90
48998;DHT22;34807;51.456;7.244;2023-12-20T00:41:02;7.20;99.90
48998;DHT22;34807;51.456;7.244;2023-12-20T00:43:28;7.20;99.90
48998;DHT22;34807;51.456;7.244;2023-12-20T00:45:53;7.20;99.90
48998;DHT22;34807;51.456;7.244;2023-12-20T00:48:19;7.10;99.90
48998;DHT22;34807;51.456;7.244;2023-12-20T00:50:44;7.20;99.90
48998;DHT22;34807;51.456;7.244;2023-12-20T00:53:10;7.10;99.90
48998;DHT22;34807;51.456;7.244;2023-12-20T00:55:35;7.10;99.90
48998;DHT22;34807;51.456;7.244;2023-12-20T00:58:00;7.20;99.90
48998;DHT22;34807;51.456;7.244;2023-12-20T01:00:26;7.10;99.90
48998;DHT22;34807;51.456;7.244;2023-12-20T01:02:52;7.10;99.90
48998;DHT22;34807;51.456;7.244;2023-12-20T01:05:18;7.10;99.90
48998;DHT22;34807;51.456;7.244;2023-12-20T01:07:44;7.10;99.90
48998;DHT22;34807;51.456;7.244;2023-12-20T01:10:10;7.10;99.90
48998;DHT22;34807;51.456;7.244;2023-12-20T01:12:35;7.10;99.90
48998;DHT22;34807;51.456;7.244;2023-12-20T01:15:01;7.10;99.90
48998;DHT22;34807;51.456;7.244;2023-12-20T01:17:26;7.10;99.90
48998;DHT22;34807;51.456;7.244;2023-12-20T01:19:52;7.10;99.90
48998;DHT22;34807;51.456;7.244;2023-12-20T01:22:18;7.10;99.90
48998;DHT22;34807;51.456;7.244;2023-12-20T01:24:44;7.10;99.90
48998;DHT22;34807;51.456;7.244;2023-12-20T01:27:09;7.10;99.90
48998;DHT22;34807;51.456;7.244;2023-12-20T01:29:36;7.10;99.90
48998;DHT22;34807;51.456;7.244;2023-12-20T01:32:01;7.10;99.90
48998;DHT22;34807;51.456;7.244;2023-12-20T01:34:27;7.00;99.90
48998;DHT22;34807;51.456;7.244;2023-12-20T01:36:52;7.10;99.90
48998;DHT22;34807;51.456;7.244;2023-12-20T01:39:18;7.10;99.90
48998;DHT22;34807;51.456;7.244;2023-12-20T01:41:43;7.10;99.90
48998;DHT22;34807;51.456;7.244;2023-12-20T01:44:09;7.00;99.90
48998;DHT22;34807;51.456;7.244;2023-12-20T01:46:34;7.00;99.90
48998;DHT22;34807;51.456;7.244;2023-12-20T01:49:00;7.00;99.90
48998;DHT22;34807;51.456;7.244;2023-12-20T01:51:25;7.00;99.90
48998;DHT22;34807;51.456;7.244;2023-12-20T01:53:52;7.00;99.90
48998;DHT22;34807;51.456;7.244;2023-12-20T01:56:19;7.00;99.90
48998;DHT22;34807;51.456;7.244;2023-12-20T01:58:45;7.00;99.90
48998;DHT22;34807;51.456;7.244;2023-12-20T02:01:11;7.00;99.90
48998;DHT22;34807;51.456;7.244;2023-12-20T02:03:37;7.00;99.90
48998;DHT22;34807;51.456;7.244;2023-12-20T02:06:03;7.00;99.90
48998;DHT22;34807;51.456;7.244;2023-12-20T02:08:29;7.00;99.90
48998;DHT22;34807;51.456;7.244;2023-12-20T02:10:55;7.00;99.90
48998;DHT22;34807;51.456;7.244;2023-12-20T02:13:21;7.00;99.90
48998;DHT22;34807;51.456;7.244;2023-12-20T02:15:46;7.00;99.90
48998;DHT22;34807;51.456;7.244;2023-12-20T02:18:12;7.00;99.90
48998;DHT22;34807;51.456;7.244;2023-12-20T02:20:40;7.00;99.90
48998;DHT22;34807;51.456;7.244;2023-12-20T02:23:06;6.90;99.90
48998;DHT22;34807;51.456;7.244;2023-12-20T02:25:31;6.90;99.90
48998;DHT22;34807;51.456;7.244;2023-12-20T02:27:57;6.90;99.90
48998;DHT22;34807;51.456;7.244;2023-12-20T02:30:22;6.90;99.90
48998;DHT22;34807;51.456;7.244;2023-12-20T02:32:49;6.90;99.90
48998;DHT22;34807;51.456;7.244;2023-12-20T02:35:15;6.90;99.90
48998;DHT22;34807;51.456;7.244;2023-12-20T02:37:40;6.90;99.90
48998;DHT22;34807;51.456;7.244;2023-12-20T02:40:06;6.90;99.90
48998;DHT22;34807;51.456;7.244;2023-12-20T02:42:31;6.90;99.90
48998;DHT22;34807;51.456;7.244;2023-12-20T02:44:57;6.90;99.90
48998;DHT22;34807;51.456;7.244;2023-12-20T02:47:22;6.90;99.90
48998;DHT22;34807;51.456;7.244;2023-12-20T02:49:48;6.80;99.90
48998;DHT22;34807;51.456;7.244;2023-12-20T02:52:14;6.80;99.90
48998;DHT22;34807;51.456;7.244;2023-12-20T02:54:40;6.80;99.90
48998;DHT22;34807;51.456;7.244;2023-12-20T02:57:05;6.80;99.90
48998;DHT22;34807;51.456;7.244;2023-12-20T02:59:31;6.80;99.90
48998;DHT22;34807;51.456;7.244;2023-12-20T03:01:57;6.80;99.90
48998;DHT22;34807;51.456;7.244;2023-12-20T03:04:22;6.80;99.90
48998;DHT22;34807;51.456;7.244;2023-12-20T03:06:48;6.80;99.90
48998;DHT22;34807;51.456;7.244;2023-12-20T03:09:13;6.80;99.90
48998;DHT22;34807;51.456;7.244;2023-12-20T03:11:39;6.80;99.90
48998;DHT22;34807;51.456;7.244;2023-12-20T03:14:04;6.80;99.90
48998;DHT22;34807;51.456;7.244;2023-12-20T03:16:29;6.80;99.90
48998;DHT22;34807;51.456;7.244;2023-12-20T03:18:56;6.80;99.90
48998;DHT22;34807;51.456;7.244;2023-12-20T03:21:22;6.80;99.90
48998;DHT22;34807;51.456;7.244;2023-12-20T03:23:47;6.80;99.90
48998;DHT22;34807;51.456;7.244;2023-12-20T03:26:13;6.80;99.90
48998;DHT22;34807;51.456;7.244;2023-12-20T03:28:39;6.80;99.90
48998;DHT22;34807;51.456;7.244;2023-12-20T03:31:05;6.80;99.90
48998;DHT22;34807;51.456;7.244;2023-12-20T03:33:30;6.80;99.90
48998;DHT22;34807;51.456;7.244;2023-12-20T03:35:56;6.80;99.90
48998;DHT22;34807;51.456;7.244;2023-12-20T03:38:21;6.80;99.90
48998;DHT22;34807;51.456;7.244;2023-12-20T03:40:49;6.80;99.90
48998;DHT22;34807;51.456;7.244;2023-12-20T03:43:15;6.80;99.90
48998;DHT22;34807;51.456;7.244;2023-12-20T03:45:40;6.70;99.90
48998;DHT22;34807;51.456;7.244;2023-12-20T03:48:06;6.80;99.90
48998;DHT22;34807;51.456;7.244;2023-12-20T03:50:31;6.80;99.90
48998;DHT22;34807;51.456;7.244;2023-12-20T03:52:57;6.70;99.90
48998;DHT22;34807;51.456;7.244;2023-12-20T03:55:22;6.70;99.90
48998;DHT22;34807;51.456;7.244;2023-12-20T03:57:48;6.70;99.90
48998;DHT22;34807;51.456;7.244;2023-12-20T04:00:13;6.70;99.90
48998;DHT22;34807;51.456;7.244;2023-12-20T04:02:39;6.70;99.90
48998;DHT22;34807;51.456;7.244;2023-12-20T04:05:05;6.70;99.90
48998;DHT22;34807;51.456;7.244;2023-12-20T04:07:31;6.70;99.90
48998;DHT22;34807;51.456;7.244;2023-12-20T04:09:57;6.70;99.90
48998;DHT22;34807;51.456;7.244;2023-12-20T04:12:22;6.60;99.90
48998;DHT22;34807;51.456;7.244;2023-12-20T04:14:48;6.70;99.90
48998;DHT22;34807;51.456;7.244;2023-12-20T04:17:14;6.60;99.90
48998;DHT22;34807;51.456;7.244;2023-12-20T04:19:41;6.60;99.90
48998;DHT22;34807;51.456;7.244;2023-12-20T04:22:06;6.60;99.90
48998;DHT22;34807;51.456;7.244;2023-12-20T04:24:32;6.60;99.90
48998;DHT22;34807;51.456;7.244;2023-12-20T04:26:58;6.60;99.90
48998;DHT22;34807;51.456;7.244;2023-12-20T04:29:23;6.60;99.90
48998;DHT22;34807;51.456;7.244;2023-12-20T04:31:49;6.60;99.90
48998;DHT22;34807;51.456;7.244;2023-12-20T04:34:16;6.60;99.90
48998;DHT22;34807;51.456;7.244;2023-12-20T04:36:42;6.60;99.90
48998;DHT22;34807;51.456;7.244;2023-12-20T04:39:07;6.60;99.90
48998;DHT22;34807;51.456;7.244;2023-12-20T04:41:33;6.60;99.90
48998;DHT22;34807;51.456;7.244;2023-12-20T04:43:58;6.60;99.90
48998;DHT22;34807;51.456;7.244;2023-12-20T04:46:24;6.60;99.90
48998;DHT22;34807;51.456;7.244;2023-12-20T04:48:49;6.60;99.90
48998;DHT22;34807;51.456;7.244;2023-12-20T04:51:15;6.60;99.90
48998;DHT22;34807;51.456;7.244;2023-12-20T04:53:40;6.60;99.90
48998;DHT22;34807;51.456;7.244;2023-12-20T04:56:06;6.50;99.90
48998;DHT22;34807;51.456;7.244;2023-12-20T04:58:31;6.50;99.90
48998;DHT22;34807;51.456;7.244;2023-12-20T05:00:57;6.60;99.90
48998;DHT22;34807;51.456;7.244;2023-12-20T05:03:22;6.60;99.90
48998;DHT22;34807;51.456;7.244;2023-12-20T05:05:48;6.60;99.90
48998;DHT22;34807;51.456;7.244;2023-12-20T05:08:13;6.60;99.90
48998;DHT22;34807;51.456;7.244;2023-12-20T05:10:39;6.60;99.90
48998;DHT22;34807;51.456;7.244;2023-12-20T05:13:05;6.60;99.90
48998;DHT22;34807;51.456;7.244;2023-12-20T05:15:31;6.60;99.90
48998;DHT22;34807;51.456;7.244;2023-12-20T05:17:56;6.50;99.90
48998;DHT22;34807;51.456;7.244;2023-12-20T05:20:22;6.60;99.90
48998;DHT22;34807;51.456;7.244;2023-12-20T05:22:48;6.50;99.90
48998;DHT22;34807;51.456;7.244;2023-12-20T05:25:14;6.50;99.90
48998;DHT22;34807;51.456;7.244;2023-12-20T05:27:39;6.50;99.90
48998;DHT22;34807;51.456;7.244;2023-12-20T05:30:05;6.50;99.90
48998;DHT22;34807;51.456;7.244;2023-12-20T05:32:31;6.50;99.90
48998;DHT22;34807;51.456;7.244;2023-12-20T05:34:56;6.50;99.90
48998;DHT22;34807;51.456;7.244;2023-12-20T05:37:24;6.50;99.90
48998;DHT22;34807;51.456;7.244;2023-12-20T05:39:49;6.50;99.90
48998;DHT22;34807;51.456;7.244;2023-12-20T05:42:15;6.50;99.90
48998;DHT22;34807;51.456;7.244;2023-12-20T05:44:40;6.50;99.90
48998;DHT22;34807;51.456;7.244;2023-12-20T05:47:06;6.50;99.90
48998;DHT22;34807;51.456;7.244;2023-12-20T05:49:31;6.50;99.90
48998;DHT22;34807;51.456;7.244;2023-12-20T05:51:57;6.50;99.90
48998;DHT22;34807;51.456;7.244;2023-12-20T05:54:22;6.50;99.90
48998;DHT22;34807;51.456;7.244;2023-12-20T05:56:48;6.50;99.90
48998;DHT22;34807;51.456;7.244;2023-12-20T05:59:13;6.50;99.90
48998;DHT22;34807;51.456;7.244;2023-12-20T06:01:39;6.50;99.90
48998;DHT22;34807;51.456;7.244;2023-12-20T06:04:04;6.50;99.90
48998;DHT22;34807;51.456;7.244;2023-12-20T06:06:30;6.50;99.90
48998;DHT22;34807;51.456;7.244;2023-12-20T06:08:56;6.50;99.90
48998;DHT22;34807;51.456;7.244;2023-12-20T06:11:21;6.50;99.90
48998;DHT22;34807;51.456;7.244;2023-12-20T06:13:47;6.50;99.90
48998;DHT22;34807;51.456;7.244;2023-12-20T06:16:14;6.50;99.90
48998;DHT22;34807;51.456;7.244;2023-12-20T06:18:40;6.50;99.90
48998;DHT22;34807;51.456;7.244;2023-12-20T06:21:05;6.50;99.90
48998;DHT22;34807;51.456;7.244;2023-12-20T06:23:32;6.50;99.90
48998;DHT22;34807;51.456;7.244;2023-12-20T06:25:58;6.50;99.90
48998;DHT22;34807;51.456;7.244;2023-12-20T06:28:23;6.40;99.90
48998;DHT22;34807;51.456;7.244;2023-12-20T06:30:49;6.40;99.90
48998;DHT22;34807;51.456;7.244;2023-12-20T06:33:15;6.50;99.90
48998;DHT22;34807;51.456;7.244;2023-12-20T06:35:40;6.40;99.90
48998;DHT22;34807;51.456;7.244;2023-12-20T06:38:06;6.40;99.90
48998;DHT22;34807;51.456;7.244;2023-12-20T06:40:31;6.40;99.90
48998;DHT22;34807;51.456;7.244;2023-12-20T06:42:57;6.40;99.90
48998;DHT22;34807;51.456;7.244;2023-12-20T06:45:23;6.50;99.90
48998;DHT22;34807;51.456;7.244;2023-12-20T06:47:48;6.40;99.90
48998;DHT22;34807;51.456;7.244;2023-12-20T06:50:14;6.50;99.90
48998;DHT22;34807;51.456;7.244;2023-12-20T06:52:39;6.40;99.90
48998;DHT22;34807;51.456;7.244;2023-12-20T06:55:05;6.40;99.90
48998;DHT22;34807;51.456;7.244;2023-12-20T06:57:30;6.40;99.90
48998;DHT22;34807;51.456;7.244;2023-12-20T06:59:56;6.40;99.90
48998;DHT22;34807;51.456;7.244;2023-12-20T07:02:23;6.40;99.90
48998;DHT22;34807;51.456;7.244;2023-12-20T07:04:48;6.40;99.90
48998;DHT22;34807;51.456;7.244;2023-12-20T07:07:14;6.40;99.90
48998;DHT22;34807;51.456;7.244;2023-12-20T07:09:39;6.40;99.90
48998;DHT22;34807;51.456;7.244;2023-12-20T07:12:07;6.40;99.90
48998;DHT22;34807;51.456;7.244;2023-12-20T07:14:33;6.40;99.90
48998;DHT22;34807;51.456;7.244;2023-12-20T07:16:58;6.40;99.90
48998;DHT22;34807;51.456;7.244;2023-12-20T07:19:24;6.40;99.90
48998;DHT22;34807;51.456;7.244;2023-12-20T07:21:49;6.40;99.90
48998;DHT22;34807;51.456;7.244;2023-12-20T07:24:15;6.40;99.90
48998;DHT22;34807;51.456;7.244;2023-12-20T07:26:40;6.40;99.90
48998;DHT22;34807;51.456;7.244;2023-12-20T07:29:06;6.40;99.90
48998;DHT22;34807;51.456;7.244;2023-12-20T07:31:32;6.40;99.90
48998;DHT22;34807;51.456;7.244;2023-12-20T07:33:57;6.40;99.90
48998;DHT22;34807;51.456;7.244;2023-12-20T07:36:23;6.40;99.90
48998;DHT22;34807;51.456;7.244;2023-12-20T07:38:48;6.40;99.90
48998;DHT22;34807;51.456;7.244;2023-12-20T07:41:14;6.40;99.90
48998;DHT22;34807;51.456;7.244;2023-12-20T07:43:41;6.40;99.90
48998;DHT22;34807;51.456;7.244;2023-12-20T07:46:07;6.40;99.90
48998;DHT22;34807;51.456;7.244;2023-12-20T07:48:34;6.40;99.90
48998;DHT22;34807;51.456;7.244;2023-12-20T07:51:01;6.40;99.90
48998;DHT22;34807;51.456;7.244;2023-12-20T07:53:26;6.40;99.90
48998;DHT22;34807;51.456;7.244;2023-12-20T07:55:52;6.40;99.90
48998;DHT22;34807;51.456;7.244;2023-12-20T07:58:18;6.40;99.90
48998;DHT22;34807;51.456;7.244;2023-12-20T08:00:43;6.40;99.90
48998;DHT22;34807;51.456;7.244;2023-12-20T08:03:09;6.40;99.90
48998;DHT22;34807;51.456;7.244;2023-12-20T08:05:34;6.40;99.90
48998;DHT22;34807;51.456;7.244;2023-12-20T08:08:00;6.40;99.90
48998;DHT22;34807;51.456;7.244;2023-12-20T08:10:26;6.40;99.90
48998;DHT22;34807;51.456;7.244;2023-12-20T08:12:52;6.40;99.90
48998;DHT22;34807;51.456;7.244;2023-12-20T08:15:18;6.40;99.90
48998;DHT22;34807;51.456;7.244;2023-12-20T08:17:43;6.40;99.90
48998;DHT22;34807;51.456;7.244;2023-12-20T08:20:09;6.40;99.90
48998;DHT22;34807;51.456;7.244;2023-12-20T08:22:34;6.40;99.90
48998;DHT22;34807;51.456;7.244;2023-12-20T08:25:00;6.40;99.90
48998;DHT22;34807;51.456;7.244;2023-12-20T08:27:25;6.40;99.90
48998;DHT22;34807;51.456;7.244;2023-12-20T08:29:51;6.40;99.90
48998;DHT22;34807;51.456;7.244;2023-12-20T08:32:16;6.40;99.90
48998;DHT22;34807;51.456;7.244;2023-12-20T08:34:42;6.40;99.90
48998;DHT22;34807;51.456;7.244;2023-12-20T08:37:07;6.50;99.90
48998;DHT22;34807;51.456;7.244;2023-12-20T08:39:33;6.40;99.90
48998;DHT22;34807;51.456;7.244;2023-12-20T08:41:59;6.40;99.90
48998;DHT22;34807;51.456;7.244;2023-12-20T08:44:24;6.50;99.90
48998;DHT22;34807;51.456;7.244;2023-12-20T08:46:50;6.40;99.90
48998;DHT22;34807;51.456;7.244;2023-12-20T08:49:15;6.40;99.90
48998;DHT22;34807;51.456;7.244;2023-12-20T08:51:41;6.40;99.90
48998;DHT22;34807;51.456;7.244;2023-12-20T08:54:07;6.40;99.90
48998;DHT22;34807;51.456;7.244;2023-12-20T08:56:35;6.40;99.90
48998;DHT22;34807;51.456;7.244;2023-12-20T08:59:01;6.40;99.90
48998;DHT22;34807;51.456;7.244;2023-12-20T09:01:26;6.40;99.90
48998;DHT22;34807;51.456;7.244;2023-12-20T09:03:52;6.50;99.90
48998;DHT22;34807;51.456;7.244;2023-12-20T09:06:17;6.40;99.90
48998;DHT22;34807;51.456;7.244;2023-12-20T09:08:43;6.50;99.90
48998;DHT22;34807;51.456;7.244;2023-12-20T09:11:08;6.50;99.90
48998;DHT22;34807;51.456;7.244;2023-12-20T09:13:34;6.50;99.90
48998;DHT22;34807;51.456;7.244;2023-12-20T09:15:59;6.40;99.90
48998;DHT22;34807;51.456;7.244;2023-12-20T09:18:25;6.50;99.90
48998;DHT22;34807;51.456;7.244;2023-12-20T09:20:50;6.50;99.90
48998;DHT22;34807;51.456;7.244;2023-12-20T09:23:16;6.50;99.90
48998;DHT22;34807;51.456;7.244;2023-12-20T09:25:42;6.50;99.90
48998;DHT22;34807;51.456;7.244;2023-12-20T09:28:08;6.50;99.90
48998;DHT22;34807;51.456;7.244;2023-12-20T09:30:33;6.50;99.90
48998;DHT22;34807;51.456;7.244;2023-12-20T09:33:00;6.50;99.90
48998;DHT22;34807;51.456;7.244;2023-12-20T09:35:26;6.50;99.90
48998;DHT22;34807;51.456;7.244;2023-12-20T09:37:51;6.50;99.90
48998;DHT22;34807;51.456;7.244;2023-12-20T09:40:20;6.50;99.90
48998;DHT22;34807;51.456;7.244;2023-12-20T09:45:11;6.50;99.90
48998;DHT22;34807;51.456;7.244;2023-12-20T09:47:39;6.50;99.90
48998;DHT22;34807;51.456;7.244;2023-12-20T09:50:05;6.50;99.90
48998;DHT22;34807;51.456;7.244;2023-12-20T09:52:30;6.50;99.90
48998;DHT22;34807;51.456;7.244;2023-12-20T09:54:56;6.50;99.90
48998;DHT22;34807;51.456;7.244;2023-12-20T09:57:22;6.50;99.90
48998;DHT22;34807;51.456;7.244;2023-12-20T09:59:48;6.60;99.90
48998;DHT22;34807;51.456;7.244;2023-12-20T10:02:13;6.60;99.90
48998;DHT22;34807;51.456;7.244;2023-12-20T10:04:46;6.60;99.90
48998;DHT22;34807;51.456;7.244;2023-12-20T10:07:11;6.60;99.90
48998;DHT22;34807;51.456;7.244;2023-12-20T10:09:38;6.60;99.90
48998;DHT22;34807;51.456;7.244;2023-12-20T10:12:04;6.60;99.90
48998;DHT22;34807;51.456;7.244;2023-12-20T10:14:30;6.60;99.90
48998;DHT22;34807;51.456;7.244;2023-12-20T10:17:01;6.60;99.90
48998;DHT22;34807;51.456;7.244;2023-12-20T10:19:27;6.60;99.90
48998;DHT22;34807;51.456;7.244;2023-12-20T10:21:52;6.60;99.90
48998;DHT22;34807;51.456;7.244;2023-12-20T10:24:18;6.60;99.90
48998;DHT22;34807;51.456;7.244;2023-12-20T10:26:43;6.60;99.90
48998;DHT22;34807;51.456;7.244;2023-12-20T10:29:09;6.60;99.90
48998;DHT22;34807;51.456;7.244;2023-12-20T10:31:35;6.60;99.90
48998;DHT22;34807;51.456;7.244;2023-12-20T10:34:02;6.60;99.90
48998;DHT22;34807;51.456;7.244;2023-12-20T10:36:29;6.70;99.90
48998;DHT22;34807;51.456;7.244;2023-12-20T10:38:55;6.70;99.90
48998;DHT22;34807;51.456;7.244;2023-12-20T10:41:28;6.70;99.90
48998;DHT22;34807;51.456;7.244;2023-12-20T10:44:00;6.70;99.90
48998;DHT22;34807;51.456;7.244;2023-12-20T10:46:26;6.70;99.90
48998;DHT22;34807;51.456;7.244;2023-12-20T10:48:55;6.70;99.90
48998;DHT22;34807;51.456;7.244;2023-12-20T10:51:21;6.70;99.90
48998;DHT22;34807;51.456;7.244;2023-12-20T10:53:48;6.70;99.90
48998;DHT22;34807;51.456;7.244;2023-12-20T10:56:15;6.70;99.90
48998;DHT22;34807;51.456;7.244;2023-12-20T10:58:42;6.70;99.90
48998;DHT22;34807;51.456;7.244;2023-12-20T11:01:08;6.70;99.90
48998;DHT22;34807;51.456;7.244;2023-12-20T11:03:35;6.70;99.90
48998;DHT22;34807;51.456;7.244;2023-12-20T11:06:07;6.70;99.90
48998;DHT22;34807;51.456;7.244;2023-12-20T11:14:00;6.70;99.90
48998;DHT22;34807;51.456;7.244;2023-12-20T11:16:27;6.70;99.90
48998;DHT22;34807;51.456;7.244;2023-12-20T11:18:52;6.70;99.90
48998;DHT22;34807;51.456;7.244;2023-12-20T11:21:18;6.70;99.90
48998;DHT22;34807;51.456;7.244;2023-12-20T11:23:43;6.70;99.90
48998;DHT22;34807;51.456;7.244;2023-12-20T11:26:09;6.70;99.90
48998;DHT22;34807;51.456;7.244;2023-12-20T11:28:34;6.70;99.90
48998;DHT22;34807;51.456;7.244;2023-12-20T11:31:00;6.70;99.90
48998;DHT22;34807;51.456;7.244;2023-12-20T11:33:27;6.70;99.90
48998;DHT22;34807;51.456;7.244;2023-12-20T11:35:58;6.80;99.90
48998;DHT22;34807;51.456;7.244;2023-12-20T11:38:25;6.80;99.90
48998;DHT22;34807;51.456;7.244;2023-12-20T11:40:51;6.80;99.90
48998;DHT22;34807;51.456;7.244;2023-12-20T11:43:37;6.80;99.90
48998;DHT22;34807;51.456;7.244;2023-12-20T11:46:03;6.80;99.90
48998;DHT22;34807;51.456;7.244;2023-12-20T11:48:30;6.80;99.90
48998;DHT22;34807;51.456;7.244;2023-12-20T11:50:56;6.80;99.90
48998;DHT22;34807;51.456;7.244;2023-12-20T11:53:22;6.90;99.90
48998;DHT22;34807;51.456;7.244;2023-12-20T11:55:48;6.90;99.90
48998;DHT22;34807;51.456;7.244;2023-12-20T11:58:14;6.90;99.90
48998;DHT22;34807;51.456;7.244;2023-12-20T12:00:42;6.90;99.90
48998;DHT22;34807;51.456;7.244;2023-12-20T12:03:08;6.90;99.90
48998;DHT22;34807;51.456;7.244;2023-12-20T12:05:34;6.90;99.90
48998;DHT22;34807;51.456;7.244;2023-12-20T12:08:01;6.90;99.90
48998;DHT22;34807;51.456;7.244;2023-12-20T12:10:26;6.90;99.90
48998;DHT22;34807;51.456;7.244;2023-12-20T12:12:52;6.90;99.90
48998;DHT22;34807;51.456;7.244;2023-12-20T12:15:17;6.90;99.90
48998;DHT22;34807;51.456;7.244;2023-12-20T12:17:43;6.90;99.90
48998;DHT22;34807;51.456;7.244;2023-12-20T12:20:08;6.90;99.90
48998;DHT22;34807;51.456;7.244;2023-12-20T12:22:35;6.90;99.90
48998;DHT22;34807;51.456;7.244;2023-12-20T12:25:11;6.90;99.90
48998;DHT22;34807;51.456;7.244;2023-12-20T12:27:39;6.90;99.90
48998;DHT22;34807;51.456;7.244;2023-12-20T12:30:05;6.90;99.90
48998;DHT22;34807;51.456;7.244;2023-12-20T12:32:32;6.90;99.90
48998;DHT22;34807;51.456;7.244;2023-12-20T12:34:58;6.90;99.90
48998;DHT22;34807;51.456;7.244;2023-12-20T12:37:23;6.90;99.90
48998;DHT22;34807;51.456;7.244;2023-12-20T12:39:49;6.90;99.90
48998;DHT22;34807;51.456;7.244;2023-12-20T12:42:15;6.90;99.90
48998;DHT22;34807;51.456;7.244;2023-12-20T12:44:40;6.90;99.90
48998;DHT22;34807;51.456;7.244;2023-12-20T12:47:06;6.90;99.90
48998;DHT22;34807;51.456;7.244;2023-12-20T12:49:32;6.90;99.90
48998;DHT22;34807;51.456;7.244;2023-12-20T12:51:57;6.90;99.90
48998;DHT22;34807;51.456;7.244;2023-12-20T12:54:23;6.90;99.90
48998;DHT22;34807;51.456;7.244;2023-12-20T12:56:49;6.90;99.90
48998;DHT22;34807;51.456;7.244;2023-12-20T12:59:16;6.90;99.90
48998;DHT22;34807;51.456;7.244;2023-12-20T13:01:41;6.90;99.90
48998;DHT22;34807;51.456;7.244;2023-12-20T13:04:07;6.90;99.90
48998;DHT22;34807;51.456;7.244;2023-12-20T13:06:38;6.90;99.90
48998;DHT22;34807;51.456;7.244;2023-12-20T13:09:04;6.90;99.90
48998;DHT22;34807;51.456;7.244;2023-12-20T13:11:30;6.90;99.90
48998;DHT22;34807;51.456;7.244;2023-12-20T13:13:56;6.90;99.90
48998;DHT22;34807;51.456;7.244;2023-12-20T13:16:23;6.90;99.90
48998;DHT22;34807;51.456;7.244;2023-12-20T13:18:48;6.90;99.90
48998;DHT22;34807;51.456;7.244;2023-12-20T13:21:14;6.90;99.90
48998;DHT22;34807;51.456;7.244;2023-12-20T13:23:39;6.90;99.90
48998;DHT22;34807;51.456;7.244;2023-12-20T13:26:05;7.00;99.90
48998;DHT22;34807;51.456;7.244;2023-12-20T13:28:31;7.00;99.90
48998;DHT22;34807;51.456;7.244;2023-12-20T13:30:56;6.90;99.90
48998;DHT22;34807;51.456;7.244;2023-12-20T13:33:22;7.00;99.90
48998;DHT22;34807;51.456;7.244;2023-12-20T13:35:47;6.90;99.90
48998;DHT22;34807;51.456;7.244;2023-12-20T13:38:13;6.90;99.90
48998;DHT22;34807;51.456;7.244;2023-12-20T13:40:38;7.00;99.90
48998;DHT22;34807;51.456;7.244;2023-12-20T13:43:04;7.00;99.90
48998;DHT22;34807;51.456;7.244;2023-12-20T13:45:29;6.90;99.90
48998;DHT22;34807;51.456;7.244;2023-12-20T13:47:55;6.90;99.90
48998;DHT22;34807;51.456;7.244;2023-12-20T13:50:20;7.00;99.90
48998;DHT22;34807;51.456;7.244;2023-12-20T13:52:47;7.00;99.90
48998;DHT22;34807;51.456;7.244;2023-12-20T13:55:12;6.90;99.90
48998;DHT22;34807;51.456;7.244;2023-12-20T13:57:38;6.90;99.90
48998;DHT22;34807;51.456;7.244;2023-12-20T14:00:05;6.90;99.90
48998;DHT22;34807;51.456;7.244;2023-12-20T14:02:31;6.90;99.90
48998;DHT22;34807;51.456;7.244;2023-12-20T14:04:56;6.90;99.90
48998;DHT22;34807;51.456;7.244;2023-12-20T14:07:22;6.90;99.90
48998;DHT22;34807;51.456;7.244;2023-12-20T14:09:47;6.90;99.90
48998;DHT22;34807;51.456;7.244;2023-12-20T14:12:14;6.90;99.90
48998;DHT22;34807;51.456;7.244;2023-12-20T14:14:39;6.90;99.90
48998;DHT22;34807;51.456;7.244;2023-12-20T14:17:05;6.90;99.90
48998;DHT22;34807;51.456;7.244;2023-12-20T14:19:34;6.90;99.90
48998;DHT22;34807;51.456;7.244;2023-12-20T14:21:59;6.90;99.90
48998;DHT22;34807;51.456;7.244;2023-12-20T14:24:27;6.90;99.90
48998;DHT22;34807;51.456;7.244;2023-12-20T14:26:52;6.90;99.90
48998;DHT22;34807;51.456;7.244;2023-12-20T14:29:18;6.90;99.90
48998;DHT22;34807;51.456;7.244;2023-12-20T14:31:44;6.90;99.90
48998;DHT22;34807;51.456;7.244;2023-12-20T14:34:09;6.90;99.90
48998;DHT22;34807;51.456;7.244;2023-12-20T14:36:35;6.90;99.90
48998;DHT22;34807;51.456;7.244;2023-12-20T14:39:00;6.90;99.90
48998;DHT22;34807;51.456;7.244;2023-12-20T14:41:27;6.90;99.90
48998;DHT22;34807;51.456;7.244;2023-12-20T14:43:52;6.90;99.90
48998;DHT22;34807;51.456;7.244;2023-12-20T14:46:18;6.90;99.90
48998;DHT22;34807;51.456;7.244;2023-12-20T14:48:44;6.90;99.90
48998;DHT22;34807;51.456;7.244;2023-12-20T14:51:09;6.90;99.90
48998;DHT22;34807;51.456;7.244;2023-12-20T14:53:37;6.90;99.90
48998;DHT22;34807;51.456;7.244;2023-12-20T14:56:03;6.90;99.90
48998;DHT22;34807;51.456;7.244;2023-12-20T14:58:29;6.80;99.90
48998;DHT22;34807;51.456;7.244;2023-12-20T15:00:55;6.90;99.90
48998;DHT22;34807;51.456;7.244;2023-12-20T15:03:21;6.80;99.90
48998;DHT22;34807;51.456;7.244;2023-12-20T15:05:47;6.80;99.90
48998;DHT22;34807;51.456;7.244;2023-12-20T15:08:13;6.80;99.90
48998;DHT22;34807;51.456;7.244;2023-12-20T15:10:39;6.80;99.90
48998;DHT22;34807;51.456;7.244;2023-12-20T15:13:04;6.80;99.90
48998;DHT22;34807;51.456;7.244;2023-12-20T15:15:30;6.90;99.90
48998;DHT22;34807;51.456;7.244;2023-12-20T15:17:57;6.80;99.90
48998;DHT22;34807;51.456;7.244;2023-12-20T15:20:23;6.80;99.90
48998;DHT22;34807;51.456;7.244;2023-12-20T15:22:48;6.80;99.90
48998;DHT22;34807;51.456;7.244;2023-12-20T15:25:14;6.80;99.90
48998;DHT22;34807;51.456;7.244;2023-12-20T15:27:46;6.80;99.90
48998;DHT22;34807;51.456;7.244;2023-12-20T15:30:14;6.80;99.90
48998;DHT22;34807;51.456;7.244;2023-12-20T15:32:40;6.80;99.90
48998;DHT22;34807;51.456;7.244;2023-12-20T15:35:05;6.80;99.90
48998;DHT22;34807;51.456;7.244;2023-12-20T15:37:32;6.80;99.90
48998;DHT22;34807;51.456;7.244;2023-12-20T15:39:57;6.80;99.90
48998;DHT22;34807;51.456;7.244;2023-12-20T15:42:22;6.80;99.90
48998;DHT22;34807;51.456;7.244;2023-12-20T15:44:48;6.90;99.90